sensor_id;sensor_type;location;lat;lon;timestamp;pressure;altitude;pressure_sealevel;temperature;humidity
47280;BME280;34064;44.942;0.008;2024-02-16T00:01:41;98735.09;;;16.78;66.31
47280;BME280;34064;44.942;0.008;2024-02-16T00:04:07;98737.06;;;16.76;66.67
47280;BME280;34064;44.942;0.008;2024-02-16T00:06:33;98740.44;;;16.78;66.24
47280;BME280;34064;44.942;0.008;2024-02-16T00:09:00;98737.94;;;16.76;66.55
47280;BME280;34064;44.942;0.008;2024-02-16T00:11:27;98745.81;;;16.78;66.39
47280;BME280;34064;44.942;0.008;2024-02-16T00:13:54;98742.28;;;16.77;66.54
47280;BME280;34064;44.942;0.008;2024-02-16T00:16:21;98736.25;;;16.75;66.76
47280;BME280;34064;44.942;0.008;2024-02-16T00:18:47;98729.88;;;16.76;66.63
47280;BME280;34064;44.942;0.008;2024-02-16T00:21:13;98739.25;;;16.72;67.01
47280;BME280;34064;44.942;0.008;2024-02-16T00:23:39;98730.50;;;16.70;66.77
47280;BME280;34064;44.942;0.008;2024-02-16T00:26:06;98729.50;;;16.71;66.77
47280;BME280;34064;44.942;0.008;2024-02-16T00:28:33;98736.25;;;16.75;66.63
47280;BME280;34064;44.942;0.008;2024-02-16T00:30:59;98720.81;;;16.77;66.72
47280;BME280;34064;44.942;0.008;2024-02-16T00:33:25;98733.41;;;16.77;66.77
47280;BME280;34064;44.942;0.008;2024-02-16T00:35:54;98737.06;;;16.76;67.00
47280;BME280;34064;44.942;0.008;2024-02-16T00:38:20;98732.88;;;16.73;67.05
47280;BME280;34064;44.942;0.008;2024-02-16T00:40:47;98738.25;;;16.73;67.21
47280;BME280;34064;44.942;0.008;2024-02-16T00:43:13;98738.25;;;16.73;66.83
47280;BME280;34064;44.942;0.008;2024-02-16T00:45:40;98732.72;;;16.75;66.71
47280;BME280;34064;44.942;0.008;2024-02-16T00:48:10;98731.19;;;16.72;67.30
47280;BME280;34064;44.942;0.008;2024-02-16T00:50:36;98739.25;;;16.72;67.36
47280;BME280;34064;44.942;0.008;2024-02-16T00:53:03;98738.53;;;16.70;67.36
47280;BME280;34064;44.942;0.008;2024-02-16T00:55:30;98740.22;;;16.71;67.47
47280;BME280;34064;44.942;0.008;2024-02-16T00:57:56;98738.53;;;16.70;67.41
47280;BME280;34064;44.942;0.008;2024-02-16T01:00:23;98733.34;;;16.68;67.24
47280;BME280;34064;44.942;0.008;2024-02-16T01:02:50;98743.22;;;16.68;67.44
47280;BME280;34064;44.942;0.008;2024-02-16T01:05:18;98757.50;;;16.68;67.70
47280;BME280;34064;44.942;0.008;2024-02-16T01:07:45;98760.47;;;16.65;67.67
47280;BME280;34064;44.942;0.008;2024-02-16T01:10:12;98764.84;;;16.66;67.53
47280;BME280;34064;44.942;0.008;2024-02-16T01:12:40;98766.53;;;16.67;67.89
47280;BME280;34064;44.942;0.008;2024-02-16T01:15:07;98778.72;;;16.62;68.42
47280;BME280;34064;44.942;0.008;2024-02-16T01:17:34;98775.22;;;16.61;68.20
47280;BME280;34064;44.942;0.008;2024-02-16T01:20:00;98777.03;;;16.61;68.16
47280;BME280;34064;44.942;0.008;2024-02-16T01:22:26;98773.00;;;16.57;68.42
47280;BME280;34064;44.942;0.008;2024-02-16T01:24:55;98777.50;;;16.56;68.31
47280;BME280;34064;44.942;0.008;2024-02-16T01:27:21;98778.19;;;16.58;68.35
47280;BME280;34064;44.942;0.008;2024-02-16T01:29:47;98777.38;;;16.58;68.62
47280;BME280;34064;44.942;0.008;2024-02-16T01:32:14;98772.00;;;16.58;68.26
47280;BME280;34064;44.942;0.008;2024-02-16T01:34:40;98781.06;;;16.57;68.63
47280;BME280;34064;44.942;0.008;2024-02-16T01:37:06;98777.69;;;16.55;68.73
47280;BME280;34064;44.942;0.008;2024-02-16T01:39:33;98783.22;;;16.53;68.79
47280;BME280;34064;44.942;0.008;2024-02-16T01:41:59;98784.34;;;16.50;68.64
47280;BME280;34064;44.942;0.008;2024-02-16T01:44:25;98789.69;;;16.50;68.82
47280;BME280;34064;44.942;0.008;2024-02-16T01:46:52;98788.72;;;16.51;68.62
47280;BME280;34064;44.942;0.008;2024-02-16T01:49:18;98795.75;;;16.52;68.73
47280;BME280;34064;44.942;0.008;2024-02-16T01:51:45;98793.53;;;16.48;68.75
47280;BME280;34064;44.942;0.008;2024-02-16T01:54:12;98799.00;;;16.38;69.29
47280;BME280;34064;44.942;0.008;2024-02-16T01:56:39;98792.63;;;16.39;69.03
47280;BME280;34064;44.942;0.008;2024-02-16T01:59:05;98805.50;;;16.35;69.14
47280;BME280;34064;44.942;0.008;2024-02-16T02:01:32;98793.94;;;16.35;69.14
47280;BME280;34064;44.942;0.008;2024-02-16T02:03:58;98795.63;;;16.36;69.25
47280;BME280;34064;44.942;0.008;2024-02-16T02:06:24;98786.59;;;16.37;68.95
47280;BME280;34064;44.942;0.008;2024-02-16T02:08:51;98784.91;;;16.36;68.85
47280;BME280;34064;44.942;0.008;2024-02-16T02:11:17;98785.38;;;16.31;68.93
47280;BME280;34064;44.942;0.008;2024-02-16T02:13:44;98794.78;;;16.35;68.80
47280;BME280;34064;44.942;0.008;2024-02-16T02:16:10;98800.13;;;16.35;68.74
47280;BME280;34064;44.942;0.008;2024-02-16T02:18:37;98801.13;;;16.34;68.76
47280;BME280;34064;44.942;0.008;2024-02-16T02:21:04;98797.31;;;16.37;68.83
47280;BME280;34064;44.942;0.008;2024-02-16T02:23:30;98798.44;;;16.34;68.80
47280;BME280;34064;44.942;0.008;2024-02-16T02:25:57;98808.34;;;16.34;68.96
47280;BME280;34064;44.942;0.008;2024-02-16T02:28:23;98806.34;;;16.36;68.87
47280;BME280;34064;44.942;0.008;2024-02-16T02:30:50;98803.28;;;16.31;68.91
47280;BME280;34064;44.942;0.008;2024-02-16T02:33:17;98811.50;;;16.29;69.12
47280;BME280;34064;44.942;0.008;2024-02-16T02:35:43;98808.63;;;16.31;69.06
47280;BME280;34064;44.942;0.008;2024-02-16T02:38:09;98810.66;;;16.29;69.18
47280;BME280;34064;44.942;0.008;2024-02-16T02:40:36;98817.69;;;16.30;69.14
47280;BME280;34064;44.942;0.008;2024-02-16T02:43:03;98819.81;;;16.26;69.38
47280;BME280;34064;44.942;0.008;2024-02-16T02:45:30;98814.63;;;16.25;69.23
47280;BME280;34064;44.942;0.008;2024-02-16T02:47:56;98814.00;;;16.31;69.24
47280;BME280;34064;44.942;0.008;2024-02-16T02:50:23;98821.22;;;16.30;69.30
47280;BME280;34064;44.942;0.008;2024-02-16T02:52:50;98820.00;;;16.25;69.15
47280;BME280;34064;44.942;0.008;2024-02-16T02:55:16;98818.00;;;16.27;69.19
47280;BME280;34064;44.942;0.008;2024-02-16T02:57:43;98824.19;;;16.27;69.17
47280;BME280;34064;44.942;0.008;2024-02-16T03:00:09;98831.00;;;16.21;69.63
47280;BME280;34064;44.942;0.008;2024-02-16T03:02:40;98832.69;;;16.22;69.48
47280;BME280;34064;44.942;0.008;2024-02-16T03:05:07;98831.00;;;16.21;69.57
47280;BME280;34064;44.942;0.008;2024-02-16T03:07:34;98841.72;;;16.21;69.38
47280;BME280;34064;44.942;0.008;2024-02-16T03:10:01;98832.69;;;16.22;69.49
47280;BME280;34064;44.942;0.008;2024-02-16T03:12:27;98839.50;;;16.17;69.77
47280;BME280;34064;44.942;0.008;2024-02-16T03:14:54;98840.19;;;16.19;69.61
47280;BME280;34064;44.942;0.008;2024-02-16T03:17:20;98839.38;;;16.18;69.49
47280;BME280;34064;44.942;0.008;2024-02-16T03:19:46;98843.75;;;16.19;69.72
47280;BME280;34064;44.942;0.008;2024-02-16T03:22:13;98841.19;;;16.18;69.71
47280;BME280;34064;44.942;0.008;2024-02-16T03:24:39;98838.69;;;16.16;69.61
47280;BME280;34064;44.942;0.008;2024-02-16T03:27:05;98849.69;;;16.13;69.81
47280;BME280;34064;44.942;0.008;2024-02-16T03:29:32;98846.03;;;16.14;69.80
47280;BME280;34064;44.942;0.008;2024-02-16T03:31:59;98851.38;;;16.14;69.67
47280;BME280;34064;44.942;0.008;2024-02-16T03:34:25;98862.97;;;16.15;69.72
47280;BME280;34064;44.942;0.008;2024-02-16T03:36:51;98848.69;;;16.14;69.85
47280;BME280;34064;44.942;0.008;2024-02-16T03:39:17;98851.38;;;16.14;69.87
47280;BME280;34064;44.942;0.008;2024-02-16T03:41:46;98854.06;;;16.14;69.63
47280;BME280;34064;44.942;0.008;2024-02-16T03:44:15;98862.97;;;16.15;69.77
47280;BME280;34064;44.942;0.008;2024-02-16T03:46:44;98868.16;;;16.16;69.68
47280;BME280;34064;44.942;0.008;2024-02-16T03:49:10;98863.78;;;16.15;69.77
47280;BME280;34064;44.942;0.008;2024-02-16T03:51:36;98863.25;;;16.12;69.83
47280;BME280;34064;44.942;0.008;2024-02-16T03:54:03;98855.38;;;16.10;69.88
47280;BME280;34064;44.942;0.008;2024-02-16T03:56:32;98867.09;;;16.09;69.87
47280;BME280;34064;44.942;0.008;2024-02-16T03:58:59;98872.28;;;16.11;69.92
47280;BME280;34064;44.942;0.008;2024-02-16T04:01:25;98871.44;;;16.10;69.95
47280;BME280;34064;44.942;0.008;2024-02-16T04:03:51;98875.78;;;16.11;69.67
47280;BME280;34064;44.942;0.008;2024-02-16T04:06:19;98875.66;;;16.13;69.77
47280;BME280;34064;44.942;0.008;2024-02-16T04:08:45;98887.22;;;16.13;69.73
47280;BME280;34064;44.942;0.008;2024-02-16T04:11:12;98883.81;;;16.11;69.80
47280;BME280;34064;44.942;0.008;2024-02-16T04:13:41;98889.19;;;16.11;69.65
47280;BME280;34064;44.942;0.008;2024-02-16T04:16:07;98886.66;;;16.10;69.81
47280;BME280;34064;44.942;0.008;2024-02-16T04:18:33;98899.91;;;16.11;69.80
47280;BME280;34064;44.942;0.008;2024-02-16T04:21:00;98892.72;;;16.12;69.68
47280;BME280;34064;44.942;0.008;2024-02-16T04:23:27;98904.72;;;16.08;69.94
47280;BME280;34064;44.942;0.008;2024-02-16T04:25:53;98906.56;;;16.07;69.87
47280;BME280;34064;44.942;0.008;2024-02-16T04:28:19;98909.25;;;16.07;69.83
47280;BME280;34064;44.942;0.008;2024-02-16T04:30:46;98908.41;;;16.06;69.76
47280;BME280;34064;44.942;0.008;2024-02-16T04:33:12;98913.91;;;16.05;69.67
47280;BME280;34064;44.942;0.008;2024-02-16T04:35:39;98919.97;;;16.07;69.75
47280;BME280;34064;44.942;0.008;2024-02-16T04:38:05;98920.25;;;16.04;69.82
47280;BME280;34064;44.942;0.008;2024-02-16T04:40:36;98927.31;;;16.05;69.87
47280;BME280;34064;44.942;0.008;2024-02-16T04:43:03;98934.66;;;16.03;70.04
47280;BME280;34064;44.942;0.008;2024-02-16T04:45:29;98940.88;;;16.03;70.02
47280;BME280;34064;44.942;0.008;2024-02-16T04:47:56;98940.72;;;16.05;69.92
47280;BME280;34064;44.942;0.008;2024-02-16T04:50:23;98944.38;;;16.04;69.91
47280;BME280;34064;44.942;0.008;2024-02-16T04:52:49;98948.03;;;16.03;69.80
47280;BME280;34064;44.942;0.008;2024-02-16T04:55:15;98947.06;;;16.04;69.93
47280;BME280;34064;44.942;0.008;2024-02-16T04:57:42;98947.91;;;16.04;69.91
47280;BME280;34064;44.942;0.008;2024-02-16T05:00:08;98956.09;;;16.03;69.89
47280;BME280;34064;44.942;0.008;2024-02-16T05:02:35;98955.53;;;15.99;69.94
47280;BME280;34064;44.942;0.008;2024-02-16T05:05:02;98958.22;;;15.99;70.19
47280;BME280;34064;44.942;0.008;2024-02-16T05:07:29;98961.75;;;16.00;70.21
47280;BME280;34064;44.942;0.008;2024-02-16T05:09:57;98965.44;;;15.99;70.30
47280;BME280;34064;44.942;0.008;2024-02-16T05:12:24;98962.88;;;15.97;70.32
47280;BME280;34064;44.942;0.008;2024-02-16T05:14:51;98969.38;;;15.95;70.22
47280;BME280;34064;44.942;0.008;2024-02-16T05:17:19;98971.22;;;15.94;70.27
47280;BME280;34064;44.942;0.008;2024-02-16T05:19:46;98972.38;;;15.92;70.47
47280;BME280;34064;44.942;0.008;2024-02-16T05:22:13;98976.59;;;15.94;70.41
47280;BME280;34064;44.942;0.008;2024-02-16T05:24:40;98982.22;;;15.91;70.50
47280;BME280;34064;44.942;0.008;2024-02-16T05:27:06;98976.59;;;15.94;70.35
47280;BME280;34064;44.942;0.008;2024-02-16T05:29:33;98984.09;;;15.90;70.51
47280;BME280;34064;44.942;0.008;2024-02-16T05:31:59;98985.44;;;15.95;70.29
47280;BME280;34064;44.942;0.008;2024-02-16T05:34:25;98980.41;;;15.92;70.26
47280;BME280;34064;44.942;0.008;2024-02-16T05:36:52;98995.06;;;15.87;70.37
47280;BME280;34064;44.942;0.008;2024-02-16T05:39:18;98995.06;;;15.87;70.67
47280;BME280;34064;44.942;0.008;2024-02-16T05:41:53;98995.47;;;15.93;70.60
47280;BME280;34064;44.942;0.008;2024-02-16T05:44:20;98998.47;;;15.89;70.64
47280;BME280;34064;44.942;0.008;2024-02-16T05:46:46;98998.47;;;15.89;70.72
47280;BME280;34064;44.942;0.008;2024-02-16T05:49:14;99002.13;;;15.88;70.74
47280;BME280;34064;44.942;0.008;2024-02-16T05:51:41;98994.78;;;15.90;70.61
47280;BME280;34064;44.942;0.008;2024-02-16T05:54:08;99008.47;;;15.87;70.73
47280;BME280;34064;44.942;0.008;2024-02-16T05:56:36;99007.47;;;15.88;70.78
47280;BME280;34064;44.942;0.008;2024-02-16T05:59:05;99002.97;;;15.89;70.62
47280;BME280;34064;44.942;0.008;2024-02-16T06:01:31;99011.16;;;15.87;70.72
47280;BME280;34064;44.942;0.008;2024-02-16T06:03:58;99012.13;;;15.86;70.64
47280;BME280;34064;44.942;0.008;2024-02-16T06:06:24;99012.28;;;15.85;70.71
47280;BME280;34064;44.942;0.008;2024-02-16T06:08:50;99019.88;;;15.80;70.78
47280;BME280;34064;44.942;0.008;2024-02-16T06:11:16;99021.31;;;15.84;70.62
47280;BME280;34064;44.942;0.008;2024-02-16T06:13:43;99022.16;;;15.84;70.75
47280;BME280;34064;44.942;0.008;2024-02-16T06:16:09;99023.69;;;15.77;70.89
47280;BME280;34064;44.942;0.008;2024-02-16T06:18:36;99031.03;;;15.75;70.84
47280;BME280;34064;44.942;0.008;2024-02-16T06:21:03;99036.38;;;15.75;70.79
47280;BME280;34064;44.942;0.008;2024-02-16T06:23:29;99037.09;;;15.77;70.71
47280;BME280;34064;44.942;0.008;2024-02-16T06:25:56;99033.00;;;15.73;70.93
47280;BME280;34064;44.942;0.008;2024-02-16T06:28:22;99040.59;;;15.78;70.74
47280;BME280;34064;44.942;0.008;2024-02-16T06:30:49;99039.06;;;15.75;70.88
47280;BME280;34064;44.942;0.008;2024-02-16T06:33:15;99046.38;;;15.73;71.04
47280;BME280;34064;44.942;0.008;2024-02-16T06:35:41;99049.78;;;15.75;70.81
47280;BME280;34064;44.942;0.008;2024-02-16T06:38:08;99040.47;;;15.79;71.00
47280;BME280;34064;44.942;0.008;2024-02-16T06:40:34;99047.81;;;15.77;70.75
47280;BME280;34064;44.942;0.008;2024-02-16T06:43:00;99048.78;;;15.76;70.83
47280;BME280;34064;44.942;0.008;2024-02-16T06:45:27;99056.00;;;15.75;70.84
47280;BME280;34064;44.942;0.008;2024-02-16T06:47:55;99049.94;;;15.73;70.88
47280;BME280;34064;44.942;0.008;2024-02-16T06:50:22;99059.66;;;15.74;70.72
47280;BME280;34064;44.942;0.008;2024-02-16T06:52:49;99057.09;;;15.73;70.80
47280;BME280;34064;44.942;0.008;2024-02-16T06:55:15;99057.81;;;15.75;70.72
47280;BME280;34064;44.942;0.008;2024-02-16T06:57:41;99060.19;;;15.78;70.77
47280;BME280;34064;44.942;0.008;2024-02-16T07:00:11;99065.56;;;15.78;70.63
47280;BME280;34064;44.942;0.008;2024-02-16T07:02:37;99077.69;;;15.72;70.74
47280;BME280;34064;44.942;0.008;2024-02-16T07:05:04;99078.53;;;15.73;70.72
47280;BME280;34064;44.942;0.008;2024-02-16T07:07:30;99082.22;;;15.72;70.76
47280;BME280;34064;44.942;0.008;2024-02-16T07:10:00;99087.56;;;15.72;70.89
47280;BME280;34064;44.942;0.008;2024-02-16T07:12:26;99090.38;;;15.70;70.90
47280;BME280;34064;44.942;0.008;2024-02-16T07:14:53;99099.41;;;15.69;70.96
47280;BME280;34064;44.942;0.008;2024-02-16T07:17:19;99101.94;;;15.71;70.96
47280;BME280;34064;44.942;0.008;2024-02-16T07:19:46;99102.06;;;15.69;70.87
47280;BME280;34064;44.942;0.008;2024-02-16T07:22:12;99099.56;;;15.68;70.85
47280;BME280;34064;44.942;0.008;2024-02-16T07:24:39;99113.91;;;15.67;71.12
47280;BME280;34064;44.942;0.008;2024-02-16T07:27:05;99112.09;;;15.67;70.89
47280;BME280;34064;44.942;0.008;2024-02-16T07:29:31;99116.59;;;15.67;71.16
47280;BME280;34064;44.942;0.008;2024-02-16T07:31:58;99120.25;;;15.66;71.16
47280;BME280;34064;44.942;0.008;2024-02-16T07:34:24;99119.97;;;15.69;70.89
47280;BME280;34064;44.942;0.008;2024-02-16T07:36:50;99130.56;;;15.60;71.34
47280;BME280;34064;44.942;0.008;2024-02-16T07:39:18;99134.63;;;15.65;71.14
47280;BME280;34064;44.942;0.008;2024-02-16T07:41:44;99133.66;;;15.66;71.06
47280;BME280;34064;44.942;0.008;2024-02-16T07:44:10;99132.50;;;15.68;71.05
47280;BME280;34064;44.942;0.008;2024-02-16T07:46:43;99145.06;;;15.68;71.04
47280;BME280;34064;44.942;0.008;2024-02-16T07:49:09;99146.75;;;15.69;71.08
47280;BME280;34064;44.942;0.008;2024-02-16T07:51:37;99143.09;;;15.70;71.09
47280;BME280;34064;44.942;0.008;2024-02-16T07:54:03;99147.47;;;15.71;70.83
47280;BME280;34064;44.942;0.008;2024-02-16T07:56:30;99150.16;;;15.71;70.90
47280;BME280;34064;44.942;0.008;2024-02-16T07:58:57;99153.09;;;15.68;71.14
47280;BME280;34064;44.942;0.008;2024-02-16T08:01:23;99155.50;;;15.71;70.99
47280;BME280;34064;44.942;0.008;2024-02-16T08:03:49;99162.84;;;15.69;71.06
47280;BME280;34064;44.942;0.008;2024-02-16T08:06:16;99163.81;;;15.68;71.02
47280;BME280;34064;44.942;0.008;2024-02-16T08:08:47;99168.75;;;15.72;70.78
47280;BME280;34064;44.942;0.008;2024-02-16T08:11:13;99172.41;;;15.71;70.99
47280;BME280;34064;44.942;0.008;2024-02-16T08:13:40;99173.28;;;15.72;71.01
47280;BME280;34064;44.942;0.008;2024-02-16T08:16:06;99169.31;;;15.76;70.77
47280;BME280;34064;44.942;0.008;2024-02-16T08:18:33;99174.38;;;15.79;70.71
47280;BME280;34064;44.942;0.008;2024-02-16T08:21:00;99178.75;;;15.80;70.79
47280;BME280;34064;44.942;0.008;2024-02-16T08:23:27;99177.63;;;15.83;70.58
47280;BME280;34064;44.942;0.008;2024-02-16T08:25:53;99184.25;;;15.79;70.74
47280;BME280;34064;44.942;0.008;2024-02-16T08:28:19;99186.09;;;15.78;70.49
47280;BME280;34064;44.942;0.008;2024-02-16T08:30:46;99190.47;;;15.79;70.48
47280;BME280;34064;44.942;0.008;2024-02-16T08:33:12;99197.78;;;15.77;70.36
47280;BME280;34064;44.942;0.008;2024-02-16T08:35:41;99191.16;;;15.81;70.46
47280;BME280;34064;44.942;0.008;2024-02-16T08:38:07;99192.97;;;15.81;70.48
47280;BME280;34064;44.942;0.008;2024-02-16T08:40:39;99195.94;;;15.78;70.52
47280;BME280;34064;44.942;0.008;2024-02-16T08:43:06;99200.47;;;15.77;70.47
47280;BME280;34064;44.942;0.008;2024-02-16T08:45:35;99202.56;;;15.83;70.38
47280;BME280;34064;44.942;0.008;2024-02-16T08:48:01;99207.91;;;15.83;70.44
47280;BME280;34064;44.942;0.008;2024-02-16T08:50:29;99209.38;;;15.87;70.30
47280;BME280;34064;44.942;0.008;2024-02-16T08:52:56;99207.91;;;15.83;70.54
47280;BME280;34064;44.942;0.008;2024-02-16T08:55:23;99215.00;;;15.84;70.54
47280;BME280;34064;44.942;0.008;2024-02-16T08:57:49;99218.63;;;15.83;70.77
47280;BME280;34064;44.942;0.008;2024-02-16T09:00:16;99218.41;;;15.86;70.30
47280;BME280;34064;44.942;0.008;2024-02-16T09:02:42;99224.75;;;15.85;70.66
47280;BME280;34064;44.942;0.008;2024-02-16T09:05:10;99227.66;;;15.82;70.52
47280;BME280;34064;44.942;0.008;2024-02-16T09:07:36;99238.13;;;15.85;70.59
47280;BME280;34064;44.942;0.008;2024-02-16T09:10:03;99238.84;;;15.87;70.44
47280;BME280;34064;44.942;0.008;2024-02-16T09:12:30;99245.19;;;15.86;70.75
47280;BME280;34064;44.942;0.008;2024-02-16T09:14:57;99243.94;;;15.90;70.50
47280;BME280;34064;44.942;0.008;2024-02-16T09:17:23;99244.59;;;15.93;70.77
47280;BME280;34064;44.942;0.008;2024-02-16T09:19:49;99241.38;;;15.99;70.59
47280;BME280;34064;44.942;0.008;2024-02-16T09:22:16;99242.38;;;15.98;70.51
47280;BME280;34064;44.942;0.008;2024-02-16T09:24:42;99245.44;;;16.03;70.68
47280;BME280;34064;44.942;0.008;2024-02-16T09:27:13;99244.91;;;16.09;70.42
47280;BME280;34064;44.942;0.008;2024-02-16T09:29:39;99248.69;;;16.06;70.60
47280;BME280;34064;44.942;0.008;2024-02-16T09:32:06;99246.28;;;16.13;70.46
47280;BME280;34064;44.942;0.008;2024-02-16T09:34:32;99250.81;;;16.13;70.45
47280;BME280;34064;44.942;0.008;2024-02-16T09:36:59;99251.66;;;16.13;70.39
47280;BME280;34064;44.942;0.008;2024-02-16T09:39:25;99256.19;;;16.13;70.54
47280;BME280;34064;44.942;0.008;2024-02-16T09:41:54;99254.47;;;16.21;70.09
47280;BME280;34064;44.942;0.008;2024-02-16T09:44:22;99254.47;;;16.21;70.12
47280;BME280;34064;44.942;0.008;2024-02-16T09:46:48;99256.31;;;16.21;70.20
47280;BME280;34064;44.942;0.008;2024-02-16T09:49:15;99273.38;;;16.20;70.16
47280;BME280;34064;44.942;0.008;2024-02-16T09:51:41;99277.31;;;16.26;70.04
47280;BME280;34064;44.942;0.008;2024-02-16T09:54:07;99278.72;;;16.30;69.85
47280;BME280;34064;44.942;0.008;2024-02-16T09:56:34;99278.72;;;16.30;69.95
47280;BME280;34064;44.942;0.008;2024-02-16T09:59:00;99282.25;;;16.30;69.74
47280;BME280;34064;44.942;0.008;2024-02-16T10:01:26;99286.06;;;16.28;69.79
47280;BME280;34064;44.942;0.008;2024-02-16T10:03:54;99294.13;;;16.28;69.88
47280;BME280;34064;44.942;0.008;2024-02-16T10:06:20;99292.13;;;16.30;69.63
47280;BME280;34064;44.942;0.008;2024-02-16T10:08:52;99300.16;;;16.30;69.80
47280;BME280;34064;44.942;0.008;2024-02-16T10:11:20;99298.19;;;16.32;69.71
47280;BME280;34064;44.942;0.008;2024-02-16T10:14:04;99298.19;;;16.32;69.25
47280;BME280;34064;44.942;0.008;2024-02-16T10:16:31;99302.16;;;16.28;69.25
47280;BME280;34064;44.942;0.008;2024-02-16T10:19:07;99301.84;;;16.31;69.31
47280;BME280;34064;44.942;0.008;2024-02-16T10:21:36;99314.28;;;16.32;69.38
47280;BME280;34064;44.942;0.008;2024-02-16T10:24:06;99315.53;;;16.37;68.77
47280;BME280;34064;44.942;0.008;2024-02-16T10:26:34;99327.56;;;16.33;68.52
47280;BME280;34064;44.942;0.008;2024-02-16T10:29:05;99324.72;;;16.25;68.78
47280;BME280;34064;44.942;0.008;2024-02-16T10:31:32;99338.25;;;16.24;69.01
47280;BME280;34064;44.942;0.008;2024-02-16T10:34:03;99339.69;;;16.28;68.84
47280;BME280;34064;44.942;0.008;2024-02-16T10:36:39;99339.69;;;16.28;68.40
47280;BME280;34064;44.942;0.008;2024-02-16T10:39:07;99341.94;;;16.32;68.16
47280;BME280;34064;44.942;0.008;2024-02-16T10:41:40;99348.41;;;16.30;67.92
47280;BME280;34064;44.942;0.008;2024-02-16T10:44:07;99351.25;;;16.28;68.06
47280;BME280;34064;44.942;0.008;2024-02-16T10:46:34;99356.03;;;16.34;67.32
47280;BME280;34064;44.942;0.008;2024-02-16T10:49:01;99350.97;;;16.31;67.07
47280;BME280;34064;44.942;0.008;2024-02-16T10:51:53;99361.97;;;16.38;67.05
47280;BME280;34064;44.942;0.008;2024-02-16T10:54:26;99356.03;;;16.44;66.77
47280;BME280;34064;44.942;0.008;2024-02-16T10:56:55;99358.44;;;16.47;66.67
47280;BME280;34064;44.942;0.008;2024-02-16T10:59:21;99352.34;;;16.55;66.44
47280;BME280;34064;44.942;0.008;2024-02-16T11:01:48;99356.63;;;16.58;66.41
47280;BME280;34064;44.942;0.008;2024-02-16T11:04:24;99355.59;;;16.59;66.27
47280;BME280;34064;44.942;0.008;2024-02-16T11:06:55;99350.09;;;16.70;65.04
47280;BME280;34064;44.942;0.008;2024-02-16T11:09:29;99361.66;;;16.61;65.26
47280;BME280;34064;44.942;0.008;2024-02-16T11:12:00;99364.50;;;16.59;65.61
47280;BME280;34064;44.942;0.008;2024-02-16T11:14:42;99371.84;;;16.67;65.14
47280;BME280;34064;44.942;0.008;2024-02-16T11:17:10;99362.50;;;16.71;64.85
47280;BME280;34064;44.942;0.008;2024-02-16T11:19:37;99363.06;;;16.75;65.24
47280;BME280;34064;44.942;0.008;2024-02-16T11:22:04;99364.16;;;16.82;64.99
47280;BME280;34064;44.942;0.008;2024-02-16T11:24:44;99361.75;;;16.89;64.84
47280;BME280;34064;44.942;0.008;2024-02-16T11:27:11;99365.00;;;16.92;64.07
47280;BME280;34064;44.942;0.008;2024-02-16T11:29:39;99361.09;;;16.96;63.56
47280;BME280;34064;44.942;0.008;2024-02-16T11:32:08;99356.53;;;16.97;63.38
47280;BME280;34064;44.942;0.008;2024-02-16T11:34:34;99353.97;;;17.05;62.77
47280;BME280;34064;44.942;0.008;2024-02-16T11:37:04;99353.31;;;17.03;63.18
47280;BME280;34064;44.942;0.008;2024-02-16T11:39:33;99349.47;;;17.06;62.73
47280;BME280;34064;44.942;0.008;2024-02-16T11:42:03;99347.63;;;17.06;62.67
47280;BME280;34064;44.942;0.008;2024-02-16T11:44:31;99350.75;;;17.02;62.54
47280;BME280;34064;44.942;0.008;2024-02-16T11:47:02;99357.91;;;17.11;62.32
47280;BME280;34064;44.942;0.008;2024-02-16T11:49:32;99356.50;;;17.17;62.05
47280;BME280;34064;44.942;0.008;2024-02-16T11:52:04;99360.59;;;17.11;62.18
47280;BME280;34064;44.942;0.008;2024-02-16T11:54:31;99360.31;;;17.14;62.31
47280;BME280;34064;44.942;0.008;2024-02-16T11:56:58;99344.03;;;17.25;61.88
47280;BME280;34064;44.942;0.008;2024-02-16T11:59:25;99350.78;;;17.29;61.00
47280;BME280;34064;44.942;0.008;2024-02-16T12:01:56;99350.25;;;17.26;60.66
47280;BME280;34064;44.942;0.008;2024-02-16T12:04:23;99344.59;;;17.29;60.08
47280;BME280;34064;44.942;0.008;2024-02-16T12:06:58;99355.94;;;17.23;60.71
47280;BME280;34064;44.942;0.008;2024-02-16T12:09:25;99344.59;;;17.29;60.80
47280;BME280;34064;44.942;0.008;2024-02-16T12:11:53;99346.66;;;17.35;60.90
47280;BME280;34064;44.942;0.008;2024-02-16T12:14:22;99338.31;;;17.38;60.49
47280;BME280;34064;44.942;0.008;2024-02-16T12:16:56;99334.38;;;17.42;60.78
47280;BME280;34064;44.942;0.008;2024-02-16T12:19:23;99332.59;;;17.51;60.22
47280;BME280;34064;44.942;0.008;2024-02-16T12:21:53;99336.72;;;17.45;59.74
47280;BME280;34064;44.942;0.008;2024-02-16T12:24:21;99336.00;;;17.53;58.08
47280;BME280;34064;44.942;0.008;2024-02-16T12:26:48;99328.63;;;17.55;57.70
47280;BME280;34064;44.942;0.008;2024-02-16T12:29:14;99331.78;;;17.51;58.28
47280;BME280;34064;44.942;0.008;2024-02-16T12:31:43;99331.16;;;17.57;57.08
47280;BME280;34064;44.942;0.008;2024-02-16T12:34:10;99323.00;;;17.49;55.83
47280;BME280;34064;44.942;0.008;2024-02-16T12:36:39;99328.19;;;17.60;56.64
47280;BME280;34064;44.942;0.008;2024-02-16T12:39:07;99334.84;;;17.56;55.56
47280;BME280;34064;44.942;0.008;2024-02-16T12:41:34;99339.91;;;17.59;56.52
47280;BME280;34064;44.942;0.008;2024-02-16T12:44:02;99337.53;;;17.56;55.27
47280;BME280;34064;44.942;0.008;2024-02-16T12:46:28;99338.84;;;17.52;55.14
47280;BME280;34064;44.942;0.008;2024-02-16T12:48:55;99340.06;;;17.57;54.94
47280;BME280;34064;44.942;0.008;2024-02-16T12:51:21;99336.78;;;17.64;54.66
47280;BME280;34064;44.942;0.008;2024-02-16T12:53:48;99336.25;;;17.60;55.13
47280;BME280;34064;44.942;0.008;2024-02-16T12:56:15;99340.00;;;17.67;55.04
47280;BME280;34064;44.942;0.008;2024-02-16T12:58:41;99339.66;;;17.80;55.13
47280;BME280;34064;44.942;0.008;2024-02-16T13:01:07;99331.22;;;17.93;53.96